createdAt,value
2022-10-19T00:01:06.512Z,100206.31
2022-10-19T00:03:35.975Z,100207.41
2022-10-19T00:06:23.649Z,100207.25
2022-10-19T00:08:50.435Z,100212.56
2022-10-19T00:11:17.244Z,100216.63
2022-10-19T00:13:44.093Z,100220.66
2022-10-19T00:16:13.765Z,100220.06
2022-10-19T00:18:42.586Z,100223.50
2022-10-19T00:21:13.816Z,100219.56
2022-10-19T00:23:41.011Z,100223.31
2022-10-19T00:26:08.165Z,100232.22
2022-10-19T00:28:36.492Z,100230.34
2022-10-19T00:31:07.806Z,100223.25
2022-10-19T00:33:34.742Z,100234.81
2022-10-19T00:36:02.798Z,100223.59
2022-10-19T00:38:29.796Z,100225.47
2022-10-19T00:40:56.837Z,100233.44
2022-10-19T00:43:27.017Z,100227.97
2022-10-19T00:45:53.900Z,100228.88
2022-10-19T00:48:26.195Z,100229.78
2022-10-19T00:50:56.256Z,100228.06
2022-10-19T00:53:26.271Z,100224.00
2022-10-19T00:55:54.159Z,100226.78
2022-10-19T00:58:21.157Z,100234.09
2022-10-19T01:00:48.220Z,100232.38
2022-10-19T01:03:15.133Z,100237.84
2022-10-19T01:05:42.884Z,100237.66
2022-10-19T01:08:10.173Z,100222.66
2022-10-19T01:11:02.607Z,100233.69
2022-10-19T01:13:55.439Z,100229.31
2022-10-19T01:16:44.436Z,100226.03
2022-10-19T01:19:11.181Z,100229.28
2022-10-19T01:21:48.156Z,100229.09
2022-10-19T01:24:35.844Z,100225.97
2022-10-19T01:27:27.806Z,100232.97
2022-10-19T01:30:00.768Z,100230.63
2022-10-19T01:33:03.591Z,100236.53
2022-10-19T01:35:42.991Z,100222.00
2022-10-19T01:38:36.969Z,100218.88
2022-10-19T01:41:34.667Z,100216.84
2022-10-19T01:44:09.030Z,100221.34
2022-10-19T01:46:41.482Z,100221.34
2022-10-19T01:49:39.201Z,100231.94
2022-10-19T01:52:09.875Z,100227.47
2022-10-19T01:54:40.584Z,100225.88
2022-10-19T01:57:12.072Z,100229.28
2022-10-19T01:59:39.799Z,100226.47
2022-10-19T02:02:09.642Z,100226.19
2022-10-19T02:04:38.494Z,100231.78
2022-10-19T02:07:07.853Z,100233.34
2022-10-19T02:09:35.242Z,100231.00
2022-10-19T02:12:09.084Z,100227.06
2022-10-19T02:14:42.217Z,100236.88
2022-10-19T02:17:13.245Z,100234.56
2022-10-19T02:19:41.217Z,100242.00
2022-10-19T02:22:09.803Z,100250.75
2022-10-19T02:24:36.749Z,100241.72
2022-10-19T02:27:07.465Z,100245.44
2022-10-19T02:29:35.586Z,100250.28
2022-10-19T02:32:03.674Z,100249.50
2022-10-19T02:34:30.973Z,100246.63
2022-10-19T02:36:59.016Z,100244.00
2022-10-19T02:39:25.973Z,100240.84
2022-10-19T02:41:59.284Z,100242.22
2022-10-19T02:44:39.828Z,100245.97
2022-10-19T02:47:24.540Z,100229.88
2022-10-19T02:49:52.210Z,100229.88
2022-10-19T02:52:19.294Z,100223.03
2022-10-19T02:54:46.416Z,100227.56
2022-10-19T02:57:18.709Z,100227.38
2022-10-19T02:59:46.098Z,100221.13
2022-10-19T03:02:14.420Z,100221.72
2022-10-19T03:04:41.218Z,100216.41
2022-10-19T03:07:12.978Z,100211.72
2022-10-19T03:09:39.747Z,100213.69
2022-10-19T03:12:06.673Z,100220.56
2022-10-19T03:14:33.876Z,100223.81
2022-10-19T03:17:00.709Z,100225.50
2022-10-19T03:19:27.581Z,100228.44
2022-10-19T03:21:54.402Z,100228.56
2022-10-19T03:24:21.351Z,100222.00
2022-10-19T03:26:48.765Z,100212.00
2022-10-19T03:29:15.669Z,100214.44
2022-10-19T03:31:42.420Z,100215.94
2022-10-19T03:34:09.341Z,100215.75
2022-10-19T03:36:38.688Z,100212.63
2022-10-19T03:39:09.006Z,100211.38
2022-10-19T03:41:37.541Z,100206.94
2022-10-19T03:44:06.224Z,100223.72
2022-10-19T03:46:33.610Z,100216.38
2022-10-19T03:49:00.390Z,100214.63
2022-10-19T03:51:29.709Z,100215.53
2022-10-19T03:54:01.875Z,100212.88
2022-10-19T03:56:30.072Z,100220.31
2022-10-19T03:58:59.503Z,100218.97
2022-10-19T04:01:31.516Z,100211.50
2022-10-19T04:04:01.611Z,100216.59
2022-10-19T04:06:31.189Z,100222.28
2022-10-19T04:08:58.764Z,100229.16
2022-10-19T04:11:28.382Z,100227.75
2022-10-19T04:13:56.856Z,100234.63
2022-10-19T04:16:25.201Z,100235.88
2022-10-19T04:18:52.836Z,100236.19
2022-10-19T04:21:25.453Z,100226.69
2022-10-19T04:23:54.845Z,100233.66
2022-10-19T04:26:22.262Z,100231.28
2022-10-19T04:28:49.639Z,100234.25
2022-10-19T04:31:16.455Z,100240.31
2022-10-19T04:33:43.467Z,100229.44
2022-10-19T04:36:11.747Z,100236.97
2022-10-19T04:38:39.622Z,100228.56
2022-10-19T04:41:11.878Z,100232.88
2022-10-19T04:43:38.730Z,100234.44
2022-10-19T04:46:07.926Z,100226.50
2022-10-19T04:48:36.470Z,100232.56
2022-10-19T04:51:04.905Z,100224.44
2022-10-19T04:53:32.888Z,100222.09
2022-10-19T04:55:59.869Z,100223.09
2022-10-19T04:58:27.404Z,100218.84
2022-10-19T05:00:54.212Z,100214.66
2022-10-19T05:03:21.133Z,100209.16
2022-10-19T05:05:47.977Z,100211.53
2022-10-19T05:08:14.694Z,100211.81
2022-10-19T05:10:44.248Z,100210.53
2022-10-19T05:13:13.800Z,100202.31
2022-10-19T05:15:40.639Z,100195.16
2022-10-19T05:18:07.480Z,100196.25
2022-10-19T05:20:35.209Z,100194.97
2022-10-19T05:23:06.229Z,100195.09
2022-10-19T05:25:34.123Z,100197.19
2022-10-19T05:28:00.854Z,100190.75
2022-10-19T05:30:27.623Z,100196.59
2022-10-19T05:32:54.594Z,100205.31
2022-10-19T05:35:22.551Z,100205.63
2022-10-19T05:37:54.623Z,100214.41
2022-10-19T05:40:21.469Z,100206.97
2022-10-19T05:42:48.253Z,100206.97
2022-10-19T05:45:15.059Z,100201.13
2022-10-19T05:47:41.914Z,100211.59
2022-10-19T05:50:08.785Z,100207.88
2022-10-19T05:52:35.917Z,100214.22
2022-10-19T05:55:03.835Z,100213.66
2022-10-19T05:57:32.503Z,100220.22
2022-10-19T05:59:59.559Z,100224.63
2022-10-19T06:02:26.328Z,100228.84
2022-10-19T06:04:53.129Z,100222.78
2022-10-19T06:07:19.956Z,100226.50
2022-10-19T06:09:46.765Z,100220.44
2022-10-19T06:12:15.811Z,100225.72
2022-10-19T06:14:43.480Z,100231.50
2022-10-19T06:17:10.344Z,100233.56
2022-10-19T06:19:37.332Z,100240.44
2022-10-19T06:22:04.149Z,100241.97
2022-10-19T06:24:30.923Z,100248.25
2022-10-19T06:26:57.707Z,100242.66
2022-10-19T06:29:24.485Z,100250.31
2022-10-19T06:31:51.313Z,100247.66
2022-10-19T06:34:18.275Z,100252.66
2022-10-19T06:36:45.121Z,100255.00
2022-10-19T06:39:11.905Z,100259.72
2022-10-19T06:41:38.660Z,100258.06
2022-10-19T06:44:20.531Z,100269.09
2022-10-19T06:46:47.364Z,100264.59
2022-10-19T06:49:14.734Z,100266.19
2022-10-19T06:51:41.580Z,100261.75
2022-10-19T06:54:08.546Z,100251.84
2022-10-19T06:56:35.487Z,100266.56
2022-10-19T06:59:02.478Z,100266.16
2022-10-19T07:01:30.117Z,100257.31
2022-10-19T07:03:57.087Z,100264.09
2022-10-19T07:06:23.947Z,100256.03
2022-10-19T07:08:52.191Z,100260.13
2022-10-19T07:11:21.244Z,100263.75
2022-10-19T07:13:48.328Z,100267.06
2022-10-19T07:16:20.613Z,100275.50
2022-10-19T07:18:49.619Z,100266.97
2022-10-19T07:21:18.083Z,100264.19
2022-10-19T07:23:46.383Z,100268.59
2022-10-19T07:26:22.981Z,100271.91
2022-10-19T07:28:50.037Z,100269.44
2022-10-19T07:31:20.359Z,100279.44
2022-10-19T07:33:51.452Z,100274.00
2022-10-19T07:36:18.278Z,100276.66
2022-10-19T07:38:45.155Z,100288.75
2022-10-19T07:41:15.116Z,100276.16
2022-10-19T07:43:44.048Z,100279.88
2022-10-19T07:46:22.762Z,100284.50
2022-10-19T07:48:49.809Z,100274.19
2022-10-19T07:51:18.867Z,100282.44
2022-10-19T07:53:46.514Z,100279.81
2022-10-19T07:56:14.786Z,100272.34
2022-10-19T07:58:42.290Z,100276.56
2022-10-19T08:01:31.221Z,100270.38
2022-10-19T08:04:55.451Z,100272.75
2022-10-19T08:06:46.158Z,100269.47
2022-10-19T08:09:27.617Z,100268.88
2022-10-19T08:11:59.825Z,100278.09
2022-10-19T08:14:26.564Z,100275.44
2022-10-19T08:16:53.372Z,100272.97
2022-10-19T08:19:20.202Z,100271.88
2022-10-19T08:21:47.264Z,100267.06
2022-10-19T08:24:17.173Z,100271.75
2022-10-19T08:26:44.357Z,100262.13
2022-10-19T08:29:16.622Z,100264.94
2022-10-19T08:31:46.055Z,100260.31
2022-10-19T08:34:13.614Z,100264.09
2022-10-19T08:39:13.356Z,100267.25
2022-10-19T08:41:40.200Z,100256.06
2022-10-19T08:44:54.594Z,100268.69
2022-10-19T08:47:39.922Z,100263.38
2022-10-19T08:50:25.749Z,100264.97
2022-10-19T08:53:02.118Z,100261.06
2022-10-19T08:55:53.252Z,100260.50
2022-10-19T08:59:04.032Z,100248.81
2022-10-19T09:01:57.329Z,100251.63
2022-10-19T09:04:40.884Z,100249.47
2022-10-19T09:07:27.430Z,100254.94
2022-10-19T09:10:14.447Z,100254.66
2022-10-19T09:12:47.671Z,100255.59
2022-10-19T09:15:48.087Z,100254.69
2022-10-19T09:18:22.528Z,100262.19
2022-10-19T09:21:02.784Z,100263.63
2022-10-19T09:23:32.388Z,100257.38
2022-10-19T09:25:59.208Z,100256.31
2022-10-19T09:29:13.431Z,100260.06
2022-10-19T09:31:41.442Z,100260.69
2022-10-19T09:34:25.861Z,100265.53
2022-10-19T09:36:55.559Z,100267.25
2022-10-19T09:39:24.515Z,100258.03
2022-10-19T09:42:05.341Z,100264.91
2022-10-19T09:44:32.748Z,100253.66
2022-10-19T09:47:27.097Z,100256.63
2022-10-19T09:50:22.290Z,100252.56
2022-10-19T09:52:53.031Z,100252.88
2022-10-19T09:55:43.542Z,100252.56
2022-10-19T09:58:13.405Z,100251.00
2022-10-19T10:00:53.975Z,100252.25
2022-10-19T10:03:35.857Z,100251.94
2022-10-19T10:06:08.446Z,100249.75
2022-10-19T10:08:45.292Z,100244.13
2022-10-19T10:11:15.485Z,100241.31
2022-10-19T10:13:50.718Z,100247.25
2022-10-19T10:16:20.195Z,100239.28
2022-10-19T10:18:56.796Z,100245.22
2022-10-19T10:21:29.588Z,100235.06
2022-10-19T10:23:59.474Z,100239.44
2022-10-19T10:26:26.474Z,100229.91
2022-10-19T10:28:54.612Z,100231.63
2022-10-19T10:31:26.286Z,100228.50
2022-10-19T10:34:12.184Z,100228.97
2022-10-19T10:36:53.944Z,100223.03
2022-10-19T10:39:20.767Z,100219.28
2022-10-19T10:41:48.835Z,100218.19
2022-10-19T10:44:21.893Z,100217.44
2022-10-19T10:47:00.642Z,100212.91
2022-10-19T10:49:35.250Z,100223.19
2022-10-19T10:52:07.773Z,100217.72
2022-10-19T10:54:34.561Z,100209.75
2022-10-19T10:57:15.465Z,100203.34
2022-10-19T10:59:47.586Z,100197.72
2022-10-19T11:02:36.292Z,100192.56
2022-10-19T11:05:21.840Z,100195.38
2022-10-19T11:07:59.305Z,100192.38
2022-10-19T11:10:31.523Z,100195.19
2022-10-19T11:13:18.540Z,100185.97
2022-10-19T11:15:59.496Z,100190.50
2022-10-19T11:18:38.069Z,100176.91
2022-10-19T11:21:11.139Z,100172.81
2022-10-19T11:23:47.877Z,100176.28
2022-10-19T11:26:40.660Z,100173.63
2022-10-19T11:29:20.332Z,100170.97
2022-10-19T11:31:49.633Z,100166.09
2022-10-19T11:34:47.437Z,100164.53
2022-10-19T11:37:27.957Z,100159.53
2022-10-19T11:40:22.146Z,100158.44
2022-10-19T11:43:01.315Z,100151.31
2022-10-19T11:45:46.404Z,100145.25
2022-10-19T11:48:28.216Z,100140.19
2022-10-19T11:51:16.942Z,100137.50
2022-10-19T11:54:05.004Z,100136.72
2022-10-19T11:56:58.097Z,100139.38
2022-10-19T11:59:35.636Z,100121.88
2022-10-19T12:02:41.578Z,100127.34
2022-10-19T12:05:29.880Z,100127.63
2022-10-19T12:08:21.348Z,100119.34
2022-10-19T12:11:07.025Z,100121.88
2022-10-19T12:13:44.392Z,100107.75
2022-10-19T12:16:13.355Z,100101.16
2022-10-19T12:18:53.483Z,100105.84
2022-10-19T12:21:28.200Z,100103.53
2022-10-19T12:23:58.198Z,100107.13
2022-10-19T12:26:27.982Z,100101.81
2022-10-19T12:28:58.952Z,100094.66
2022-10-19T12:31:27.405Z,100099.50
2022-10-19T12:34:06.045Z,100088.88
2022-10-19T12:36:38.176Z,100092.34
2022-10-19T12:39:37.502Z,100088.06
2022-10-19T12:42:04.228Z,100077.84
2022-10-19T12:44:58.749Z,100076.22
2022-10-19T12:47:25.997Z,100082.25
2022-10-19T12:49:56.684Z,100079.06
2022-10-19T12:52:35.595Z,100066.91
2022-10-19T12:55:12.167Z,100063.63
2022-10-19T12:57:40.262Z,100060.31
2022-10-19T13:00:20.859Z,100059.66
2022-10-19T13:02:58.267Z,100059.91
2022-10-19T13:05:27.889Z,100064.91
2022-10-19T13:07:54.791Z,100058.03
2022-10-19T13:10:27.205Z,100052.81
2022-10-19T13:12:54.703Z,100051.19
2022-10-19T13:15:36.854Z,100056.47
2022-10-19T13:18:15.064Z,100058.03
2022-10-19T13:20:52.528Z,100061.66
2022-10-19T13:23:31.315Z,100066.84
2022-10-19T13:26:23.873Z,100065.34
2022-10-19T13:28:54.344Z,100069.31
2022-10-19T13:31:32.078Z,100063.19
2022-10-19T13:33:59.264Z,100067.19
2022-10-19T13:36:26.715Z,100073.44
2022-10-19T13:38:59.608Z,100072.63
2022-10-19T13:41:28.768Z,100066.28
2022-10-19T13:44:03.092Z,100067.84
2022-10-19T13:46:29.773Z,100064.09
2022-10-19T13:49:08.660Z,100066.88
2022-10-19T13:51:50.243Z,100065.06
2022-10-19T13:54:32.142Z,100063.06
2022-10-19T13:57:28.029Z,100060.38
2022-10-19T14:00:02.475Z,100071.03
2022-10-19T14:02:54.055Z,100070.56
2022-10-19T14:05:27.901Z,100065.25
2022-10-19T14:08:18.155Z,100059.78
2022-10-19T14:11:00.756Z,100068.56
2022-10-19T14:14:11.488Z,100071.72
2022-10-19T14:16:50.295Z,100071.47
2022-10-19T14:19:33.187Z,100068.38
2022-10-19T14:22:23.914Z,100071.19
2022-10-19T14:24:50.709Z,100065.63
2022-10-19T14:27:23.187Z,100071.13
2022-10-19T14:29:52.705Z,100075.84
2022-10-19T14:32:24.213Z,100067.47
2022-10-19T14:34:51.492Z,100067.03
2022-10-19T14:37:24.928Z,100063.81
2022-10-19T14:40:08.295Z,100063.22
2022-10-19T14:42:44.395Z,100075.75
2022-10-19T14:45:21.064Z,100076.09
2022-10-19T14:48:02.739Z,100080.06
2022-10-19T14:50:35.202Z,100087.75
2022-10-19T14:53:26.224Z,100091.06
2022-10-19T14:55:55.877Z,100094.00
2022-10-19T14:58:26.166Z,100092.47
2022-10-19T15:00:53.939Z,100106.22
2022-10-19T15:03:28.506Z,100098.22
2022-10-19T15:06:07.203Z,100097.13
2022-10-19T15:08:40.442Z,100105.88
2022-10-19T15:11:09.210Z,100108.38
2022-10-19T15:13:42.725Z,100115.72
2022-10-19T15:16:33.240Z,100117.25
2022-10-19T15:19:05.564Z,100124.41
2022-10-19T15:21:33.531Z,100127.84
2022-10-19T15:24:27.850Z,100125.47
2022-10-19T15:27:08.775Z,100128.59
2022-10-19T15:29:36.395Z,100122.97
2022-10-19T15:32:16.914Z,100132.31
2022-10-19T15:34:44.568Z,100137.56
2022-10-19T15:37:19.982Z,100133.19
2022-10-19T15:39:48.034Z,100141.75
2022-10-19T15:42:42.831Z,100143.78
2022-10-19T15:45:28.034Z,100152.16
2022-10-19T15:48:09.911Z,100153.38
2022-10-19T15:50:41.658Z,100162.53
2022-10-19T15:53:08.763Z,100164.16
2022-10-19T15:55:35.726Z,100165.38
2022-10-19T15:58:02.592Z,100178.81
2022-10-19T16:00:30.143Z,100177.66
2022-10-19T16:02:56.909Z,100188.16
2022-10-19T16:05:24.615Z,100178.66
2022-10-19T16:07:51.540Z,100188.88
2022-10-19T16:10:21.379Z,100187.75
2022-10-19T16:12:48.499Z,100196.59
2022-10-19T16:15:17.392Z,100194.25
2022-10-19T16:17:49.671Z,100201.50
2022-10-19T16:20:18.460Z,100205.53
2022-10-19T16:22:47.583Z,100197.69
2022-10-19T16:25:15.691Z,100202.59
2022-10-19T16:27:42.788Z,100211.91
2022-10-19T16:30:10.694Z,100213.88
2022-10-19T16:32:38.707Z,100217.78
2022-10-19T16:35:06.755Z,100230.44
2022-10-19T16:37:34.039Z,100230.72
2022-10-19T16:40:01.186Z,100222.56
2022-10-19T16:42:30.497Z,100225.78
2022-10-19T16:44:57.911Z,100228.91
2022-10-19T16:47:24.890Z,100228.53
2022-10-19T16:49:58.979Z,100245.28
2022-10-19T16:52:27.577Z,100239.88
2022-10-19T16:54:54.587Z,100234.84
2022-10-19T16:57:22.637Z,100239.84
2022-10-19T17:02:25.793Z,100244.34
2022-10-19T17:04:52.580Z,100252.63
2022-10-19T17:07:19.992Z,100249.22
2022-10-19T17:09:49.724Z,100254.28
2022-10-19T17:12:20.691Z,100251.38
2022-10-19T17:14:48.311Z,100258.81
2022-10-19T17:17:16.116Z,100269.16
2022-10-19T17:19:43.828Z,100271.91
2022-10-19T17:22:11.162Z,100279.31
2022-10-19T17:24:39.312Z,100290.53
2022-10-19T17:27:07.964Z,100290.81
2022-10-19T17:29:36.823Z,100297.47
2022-10-19T17:32:04.782Z,100292.81
2022-10-19T17:34:32.478Z,100288.63
2022-10-19T17:37:03.342Z,100279.97
2022-10-19T17:39:30.593Z,100287.47
2022-10-19T17:42:02.494Z,100287.56
2022-10-19T17:44:30.917Z,100287.34
2022-10-19T17:46:58.694Z,100300.25
2022-10-19T17:49:26.457Z,100294.53
2022-10-19T17:51:54.174Z,100300.31
2022-10-19T17:54:22.231Z,100304.03
2022-10-19T17:56:51.663Z,100301.41
2022-10-19T17:59:30.215Z,100309.66
2022-10-19T18:02:04.626Z,100317.59
2022-10-19T18:04:32.703Z,100319.44
2022-10-19T18:07:00.507Z,100323.72
2022-10-19T18:09:28.261Z,100329.28
2022-10-19T18:11:56.224Z,100323.44
2022-10-19T18:14:24.662Z,100318.16
2022-10-19T18:16:52.883Z,100329.00
2022-10-19T18:19:24.094Z,100325.28
2022-10-19T18:21:52.056Z,100328.47
2022-10-19T18:24:19.725Z,100333.53
2022-10-19T18:26:50.338Z,100325.34
2022-10-19T18:29:21.451Z,100327.47
2022-10-19T18:31:49.872Z,100330.13
2022-10-19T18:34:19.253Z,100331.97
2022-10-19T18:36:47.446Z,100332.53
2022-10-19T18:39:18.851Z,100334.41
2022-10-19T18:41:47.060Z,100335.44
2022-10-19T18:44:14.918Z,100329.38
2022-10-19T18:46:42.974Z,100324.41
2022-10-19T18:49:12.845Z,100334.75
2022-10-19T18:51:40.952Z,100336.59
2022-10-19T18:54:08.866Z,100343.22
2022-10-19T18:56:36.463Z,100350.34
2022-10-19T18:59:09.030Z,100346.94
2022-10-19T19:01:37.166Z,100349.50
2022-10-19T19:04:09.955Z,100340.78
2022-10-19T19:06:39.327Z,100343.72
2022-10-19T19:09:11.391Z,100342.44
2022-10-19T19:11:40.423Z,100352.47
2022-10-19T19:14:19.515Z,100358.56
2022-10-19T19:16:47.669Z,100355.63
2022-10-19T19:19:17.337Z,100353.81
2022-10-19T19:21:45.797Z,100358.56
2022-10-19T19:24:17.729Z,100360.13
2022-10-19T19:26:53.556Z,100357.78
2022-10-19T19:29:22.398Z,100356.78
2022-10-19T19:31:51.163Z,100351.50
2022-10-19T19:34:19.012Z,100351.75
2022-10-19T19:36:47.015Z,100362.09
2022-10-19T19:39:17.519Z,100366.09
2022-10-19T19:41:53.941Z,100359.50
2022-10-19T19:44:26.755Z,100360.31
2022-10-19T19:46:55.259Z,100367.38
2022-10-19T19:49:26.362Z,100369.44
2022-10-19T19:51:56.414Z,100378.69
2022-10-19T19:54:24.731Z,100374.00
2022-10-19T19:56:54.508Z,100367.44
2022-10-19T19:59:22.465Z,100380.09
2022-10-19T20:01:51.493Z,100373.81
2022-10-19T20:04:19.076Z,100383.28
2022-10-19T20:06:48.427Z,100380.94
2022-10-19T20:09:17.605Z,100379.09
2022-10-19T20:11:45.737Z,100383.88
2022-10-19T20:14:13.609Z,100388.84
2022-10-19T20:16:42.451Z,100387.06
2022-10-19T20:19:15.227Z,100390.75
2022-10-19T20:21:43.940Z,100390.50
2022-10-19T20:24:12.958Z,100393.44
2022-10-19T20:26:40.234Z,100391.63
2022-10-19T20:29:07.926Z,100392.97
2022-10-19T20:31:35.300Z,100399.56
2022-10-19T20:34:08.209Z,100395.38
2022-10-19T20:36:35.905Z,100388.25
2022-10-19T20:39:05.557Z,100397.22
2022-10-19T20:41:32.893Z,100401.19
2022-10-19T20:44:00.554Z,100401.47
2022-10-19T20:46:29.990Z,100398.31
2022-10-19T20:49:00.186Z,100403.06
2022-10-19T20:51:33.812Z,100406.28
2022-10-19T20:54:03.838Z,100406.84
2022-10-19T20:56:34.004Z,100411.56
2022-10-19T21:01:37.652Z,100405.09
2022-10-19T21:04:06.904Z,100413.25
2022-10-19T21:06:37.372Z,100410.91
2022-10-19T21:09:04.384Z,100416.72
2022-10-19T21:11:33.957Z,100411.97
2022-10-19T21:14:03.712Z,100411.72
2022-10-19T21:16:31.510Z,100410.16
2022-10-19T21:18:58.274Z,100407.03
2022-10-19T21:21:35.999Z,100407.28
2022-10-19T21:24:12.220Z,100418.16
2022-10-19T21:26:39.379Z,100405.81
2022-10-19T21:29:07.531Z,100407.34
2022-10-19T21:31:34.531Z,100415.00
2022-10-19T21:34:04.745Z,100410.25
2022-10-19T21:36:34.186Z,100406.31
2022-10-19T21:39:11.071Z,100405.59
2022-10-19T21:41:40.468Z,100406.38
2022-10-19T21:44:19.652Z,100407.16
2022-10-19T21:46:54.414Z,100398.75
2022-10-19T21:49:29.718Z,100403.78
2022-10-19T21:52:01.925Z,100408.81
2022-10-19T21:54:28.869Z,100408.56
2022-10-19T21:57:01.535Z,100410.38
2022-10-19T21:59:34.830Z,100405.63
2022-10-19T22:02:09.357Z,100401.41
2022-10-19T22:04:36.217Z,100398.03
2022-10-19T22:07:03.003Z,100399.88
2022-10-19T22:09:29.869Z,100412.81
2022-10-19T22:11:56.631Z,100405.44
2022-10-19T22:14:23.598Z,100405.72
2022-10-19T22:16:50.322Z,100414.69
2022-10-19T22:19:17.259Z,100401.53
2022-10-19T22:21:44.112Z,100402.34
2022-10-19T22:24:14.166Z,100391.56
2022-10-19T22:26:46.925Z,100402.88
2022-10-19T22:29:13.772Z,100396.59
2022-10-19T22:31:40.773Z,100398.16
2022-10-19T22:34:11.666Z,100393.19
2022-10-19T22:36:38.775Z,100388.66
2022-10-19T22:39:06.762Z,100390.28
2022-10-19T22:41:33.588Z,100386.84
2022-10-19T22:44:00.400Z,100396.06
2022-10-19T22:46:27.192Z,100391.91
2022-10-19T22:48:54.301Z,100394.00
2022-10-19T22:51:21.125Z,100390.88
2022-10-19T22:53:48.014Z,100392.75
2022-10-19T22:56:14.944Z,100396.41
2022-10-19T22:58:41.804Z,100395.91
2022-10-19T23:01:11.465Z,100402.75
2022-10-19T23:03:39.216Z,100388.03
2022-10-19T23:06:11.476Z,100401.19
2022-10-19T23:08:38.492Z,100397.00
2022-10-19T23:11:05.506Z,100393.31
2022-10-19T23:13:32.770Z,100397.28
2022-10-19T23:15:59.595Z,100404.91
2022-10-19T23:18:26.425Z,100403.59
2022-10-19T23:20:58.117Z,100406.47
2022-10-19T23:23:25.336Z,100405.19
2022-10-19T23:26:07.891Z,100401.22
2022-10-19T23:28:37.088Z,100397.03
2022-10-19T23:31:07.136Z,100394.13
2022-10-19T23:33:35.378Z,100392.50
2022-10-19T23:36:23.935Z,100391.56
2022-10-19T23:38:52.428Z,100390.75
2022-10-19T23:41:20.068Z,100392.19
2022-10-19T23:43:47.059Z,100396.94
2022-10-19T23:46:14.977Z,100393.28
2022-10-19T23:48:42.640Z,100401.59
2022-10-19T23:51:13.255Z,100407.25
2022-10-19T23:53:43.857Z,100408.81
2022-10-19T23:56:14.730Z,100396.94
2022-10-19T23:58:42.191Z,100404.19
